Akron, OH

6:19 PM EST on December 17, 2014 (GMT -0500)
Akron-Canton Regional | Change Station
CLOSE
Current Station
Airport
Location: Akron Canton,
Elevation: 1237 ft
Nearby Weather Stations

Elev 1237 ft 40.92 °N, 81.44 °W | Updated 28 minutes ago

Overcast
Overcast
31 °F
Feels Like 21 °F
N
14
Wind Variable Wind from West
Gusts 18 mph

Today
High -- | Low -- °F
--% Chance of Precip.
Yesterday
High -- | Low -- °F
Precip. -- in
7:45 AM 4:59 PM
Waning Crescent, 19% visible
Pressure 30.13 in
Visibility 10.0 miles
Clouds Overcast 1800 ft
Windchill 21 °F
Dew Point 23 °F
Humidity 72%
Rainfall 0.02 in
Snow Depth Not available.
UV 0 out of 12
Pollen .10 out of 12
Air Quality Not available.
Flu Activity Not available.
METAR KCAK 172251Z 28012G16KT 10SM OVC018 M01/M05 A3009 RMK AO2 SLP201 T10061050

More Conditions Fewer Conditions

Pressure 30.13 in
Visibility 10.0 miles
Clouds Overcast 1800 ft
Windchill 21 °F
Dew Point 23 °F
Humidity 72%
Rainfall 0.02 in
Snow Depth Not available.
UV 0 out of 12
Pollen .10 out of 12
Air Quality Not available.
Flu Activity Not available.
METAR KCAK 172251Z 28012G16KT 10SM OVC018 M01/M05 A3009 RMK AO2 SLP201 T10061050

More Conditions Fewer Conditions

Nowcast | as of 6:12 PM EST on December 17, 2014

Flurries and local snow showers will affect north central Ohio...the Central Highlands and the northeast inland Ohio through 8pm. Some of the locations that will see the flurries and snow showers include Ashland...Wellington...Litchfield...Medina...Rittman... Wooster...Akron and Canton. Snow accumulations will be a half an inch or less. As temperatures fall below freezing untreated roadways may become slippery through the evening.

×

10-Day Weather Forecast

Almanac

Astronomy

Dec. 17, 2014 Rise Set
Actual Time
Civil Twilight
Nautical Twilight
Astronomical Twilight
Moon
Length of Visible Light
Length of Day
Tomorrow will be .
, % of the Moon is Illuminated

Today's Extremes

State Highs State Lows

Community

WunderPhotos

Upload Photos

1,778,822 photos uploaded!

WunderBlogs® & News

Nearby

Air Quality

  Air Quality AQ Index Pollutant
Not available.

Snow Depth

Station Depth Elevation

Earthquake Activity

City Distance Mag. Time & Date
Minimum magnitude displayed is 2.5.

Coastal Water Temperatures

Place Temperature

Nearby Weather Stations